< Cyclone 198909 1989 Season Cyclone 198911 >
Cyclone 198910 (ORSON)
General InformationTrack Information on Google MapsDetailed Wind InformationList of All Images || ResourceGoogle EarthGE AnimationAtom FeedGeoJSON
Detalied Best Track (Time Zone = UTC)
Year Month Day Hour Lat. Long. Pressure (hPa) Wind (kt) Class Image Chart
1989 4 17 00 -9.9 129.0 1000 25 2 Image --
1989 4 17 06 -10.5 128.0 999 25 2 Image --
1989 4 17 12 -11.1 127.1 999 30 2 Image --
1989 4 17 18 -11.7 126.1 999 30 2 Image --
1989 4 18 00 -12.1 125.0 998 30 2 Image --
1989 4 18 06 -12.5 124.1 991 40 3 Image --
1989 4 18 12 -12.4 123.0 987 45 3 Image --
1989 4 18 18 -12.3 122.3 985 50 4 Image --
1989 4 19 00 -12.3 121.8 981 55 4 Image --
1989 4 19 06 -12.3 121.4 976 60 4 Image --
1989 4 19 12 -12.3 121.0 967 70 5 Image --
1989 4 19 18 -12.2 120.4 954 80 5 Image --
1989 4 20 00 -12.1 120.0 945 85 5 Image --
1989 4 20 06 -12.3 119.3 939 95 5 Image --
1989 4 20 12 -12.5 118.6 933 105 5 Image --
1989 4 20 18 -12.8 118.2 929 110 5 Image --
1989 4 21 00 -13.5 117.7 922 115 5 Image --
1989 4 21 06 -14.1 116.7 914 115 5 Image --
1989 4 21 12 -14.9 116.3 906 115 5 Image --
1989 4 21 18 -15.4 116.2 905 125 5 Image --
1989 4 22 00 -16.3 116.0 905 130 5 Image --
1989 4 22 03 -16.7 116.1 905 130 5 Image --
1989 4 22 06 -17.3 116.2 905 130 5 Image --
1989 4 22 09 -17.9 116.4 905 130 5 Image --
1989 4 22 12 -18.6 116.3 905 130 5 Image --
1989 4 22 15 -19.1 116.2 905 130 5 Image --
1989 4 22 18 -19.9 116.1 911 120 5 Image --
1989 4 22 21 -20.9 116.3 923 110 5 Image --
1989 4 23 00 -21.7 116.3 950 85 5 Image --
1989 4 23 03 -22.7 116.8 975 65 5 Image --
1989 4 23 06 -23.6 117.3 985 50 4 Image --
1989 4 23 09 -24.5 117.9 989 45 3 Image --
1989 4 23 12 -25.5 118.4 993 40 3 Image --
1989 4 23 15 -26.7 119.2 996 35 3 Image --
1989 4 23 18 -27.7 120.5 997 35 3 Image --
1989 4 23 21 -28.6 121.8 998 30 2 Image --
1989 4 24 00 -29.5 123.3 999 30 2 Image --
1989 4 24 03 -30.3 124.9 1000 30 2 Image --
1989 4 24 06 -30.9 126.6 1000 25 2 Image --
1989 4 24 09 -31.4 128.4 1000 20 2 Image --
1989 4 24 12 -31.9 130.2 1000 20 2 Image --
< Cyclone 198909 1989 Season Cyclone 198911 >

Help